sensor_id;sensor_type;location;lat;lon;timestamp;P1;P2;P0
64138;PMS5003;50435;43.700;-79.318;2022-11-21T00:01:43;4;4;
64138;PMS5003;50435;43.700;-79.318;2022-11-21T00:04:10;2;2;
64138;PMS5003;50435;43.700;-79.318;2022-11-21T00:06:38;3;3;
64138;PMS5003;50435;43.700;-79.318;2022-11-21T00:09:05;3;2;
64138;PMS5003;50435;43.700;-79.318;2022-11-21T00:11:33;1;1;
64138;PMS5003;50435;43.700;-79.318;2022-11-21T00:14:00;3;3;
64138;PMS5003;50435;43.700;-79.318;2022-11-21T00:16:28;2;2;
64138;PMS5003;50435;43.700;-79.318;2022-11-21T00:18:56;7;3;
64138;PMS5003;50435;43.700;-79.318;2022-11-21T00:21:23;2;2;
64138;PMS5003;50435;43.700;-79.318;2022-11-21T00:23:51;4;4;
64138;PMS5003;50435;43.700;-79.318;2022-11-21T00:26:18;1;1;
64138;PMS5003;50435;43.700;-79.318;2022-11-21T00:28:46;2;2;
64138;PMS5003;50435;43.700;-79.318;2022-11-21T00:31:17;2;2;
64138;PMS5003;50435;43.700;-79.318;2022-11-21T00:33:46;2;2;
64138;PMS5003;50435;43.700;-79.318;2022-11-21T00:36:13;3;3;
64138;PMS5003;50435;43.700;-79.318;2022-11-21T00:38:41;2;2;
64138;PMS5003;50435;43.700;-79.318;2022-11-21T00:41:08;1;1;
64138;PMS5003;50435;43.700;-79.318;2022-11-21T00:43:36;1;1;
64138;PMS5003;50435;43.700;-79.318;2022-11-21T00:46:03;2;2;
64138;PMS5003;50435;43.700;-79.318;2022-11-21T00:48:31;1;1;
64138;PMS5003;50435;43.700;-79.318;2022-11-21T00:50:58;4;2;
64138;PMS5003;50435;43.700;-79.318;2022-11-21T00:53:26;3;3;
64138;PMS5003;50435;43.700;-79.318;2022-11-21T00:55:54;2;2;
64138;PMS5003;50435;43.700;-79.318;2022-11-21T00:58:22;7;3;
64138;PMS5003;50435;43.700;-79.318;2022-11-21T01:00:49;2;2;
64138;PMS5003;50435;43.700;-79.318;2022-11-21T01:03:17;3;3;
64138;PMS5003;50435;43.700;-79.318;2022-11-21T01:05:44;3;3;
64138;PMS5003;50435;43.700;-79.318;2022-11-21T01:08:12;4;3;
64138;PMS5003;50435;43.700;-79.318;2022-11-21T01:10:39;4;4;
64138;PMS5003;50435;43.700;-79.318;2022-11-21T01:13:07;3;3;
64138;PMS5003;50435;43.700;-79.318;2022-11-21T01:15:34;2;2;
64138;PMS5003;50435;43.700;-79.318;2022-11-21T01:18:02;3;2;
64138;PMS5003;50435;43.700;-79.318;2022-11-21T01:20:29;4;3;
64138;PMS5003;50435;43.700;-79.318;2022-11-21T01:22:57;7;6;
64138;PMS5003;50435;43.700;-79.318;2022-11-21T01:25:24;3;3;
64138;PMS5003;50435;43.700;-79.318;2022-11-21T01:27:51;2;2;
64138;PMS5003;50435;43.700;-79.318;2022-11-21T01:30:19;3;3;
64138;PMS5003;50435;43.700;-79.318;2022-11-21T01:32:47;4;4;
64138;PMS5003;50435;43.700;-79.318;2022-11-21T01:35:14;2;2;
64138;PMS5003;50435;43.700;-79.318;2022-11-21T01:37:41;2;2;
64138;PMS5003;50435;43.700;-79.318;2022-11-21T01:40:12;6;6;
64138;PMS5003;50435;43.700;-79.318;2022-11-21T01:42:48;3;3;
64138;PMS5003;50435;43.700;-79.318;2022-11-21T01:45:52;3;3;
64138;PMS5003;50435;43.700;-79.318;2022-11-21T01:48:23;3;3;
64138;PMS5003;50435;43.700;-79.318;2022-11-21T01:50:54;4;2;
64138;PMS5003;50435;43.700;-79.318;2022-11-21T01:53:25;3;3;
64138;PMS5003;50435;43.700;-79.318;2022-11-21T01:55:53;3;3;
64138;PMS5003;50435;43.700;-79.318;2022-11-21T01:58:20;2;2;
64138;PMS5003;50435;43.700;-79.318;2022-11-21T02:00:49;7;4;
64138;PMS5003;50435;43.700;-79.318;2022-11-21T02:03:18;3;3;
64138;PMS5003;50435;43.700;-79.318;2022-11-21T02:05:49;3;3;
64138;PMS5003;50435;43.700;-79.318;2022-11-21T02:08:20;2;2;
64138;PMS5003;50435;43.700;-79.318;2022-11-21T02:10:51;3;3;
64138;PMS5003;50435;43.700;-79.318;2022-11-21T02:13:24;4;4;
64138;PMS5003;50435;43.700;-79.318;2022-11-21T02:15:51;2;2;
64138;PMS5003;50435;43.700;-79.318;2022-11-21T02:18:20;6;6;
64138;PMS5003;50435;43.700;-79.318;2022-11-21T02:20:48;3;3;
64138;PMS5003;50435;43.700;-79.318;2022-11-21T02:23:23;3;3;
64138;PMS5003;50435;43.700;-79.318;2022-11-21T02:25:55;3;3;
64138;PMS5003;50435;43.700;-79.318;2022-11-21T02:28:23;3;3;
64138;PMS5003;50435;43.700;-79.318;2022-11-21T02:30:50;3;3;
64138;PMS5003;50435;43.700;-79.318;2022-11-21T02:33:18;4;4;
64138;PMS5003;50435;43.700;-79.318;2022-11-21T02:35:54;3;3;
64138;PMS5003;50435;43.700;-79.318;2022-11-21T02:38:24;3;3;
64138;PMS5003;50435;43.700;-79.318;2022-11-21T02:40:56;4;4;
64138;PMS5003;50435;43.700;-79.318;2022-11-21T02:43:29;4;4;
64138;PMS5003;50435;43.700;-79.318;2022-11-21T02:46:03;2;2;
64138;PMS5003;50435;43.700;-79.318;2022-11-21T02:48:30;3;3;
64138;PMS5003;50435;43.700;-79.318;2022-11-21T02:50:57;7;6;
64138;PMS5003;50435;43.700;-79.318;2022-11-21T02:53:25;7;4;
64138;PMS5003;50435;43.700;-79.318;2022-11-21T02:55:52;4;4;
64138;PMS5003;50435;43.700;-79.318;2022-11-21T02:58:20;4;4;
64138;PMS5003;50435;43.700;-79.318;2022-11-21T03:00:47;6;6;
64138;PMS5003;50435;43.700;-79.318;2022-11-21T03:03:15;3;3;
64138;PMS5003;50435;43.700;-79.318;2022-11-21T03:05:43;3;3;
64138;PMS5003;50435;43.700;-79.318;2022-11-21T03:08:10;2;2;
64138;PMS5003;50435;43.700;-79.318;2022-11-21T03:10:37;2;2;
64138;PMS5003;50435;43.700;-79.318;2022-11-21T03:13:05;3;3;
64138;PMS5003;50435;43.700;-79.318;2022-11-21T03:15:33;3;3;
64138;PMS5003;50435;43.700;-79.318;2022-11-21T03:18:01;2;2;
64138;PMS5003;50435;43.700;-79.318;2022-11-21T03:20:30;2;2;
64138;PMS5003;50435;43.700;-79.318;2022-11-21T03:22:58;2;2;
64138;PMS5003;50435;43.700;-79.318;2022-11-21T03:25:25;3;3;
64138;PMS5003;50435;43.700;-79.318;2022-11-21T03:27:53;6;6;
64138;PMS5003;50435;43.700;-79.318;2022-11-21T03:30:21;3;3;
64138;PMS5003;50435;43.700;-79.318;2022-11-21T03:32:49;3;3;
64138;PMS5003;50435;43.700;-79.318;2022-11-21T03:35:20;2;2;
64138;PMS5003;50435;43.700;-79.318;2022-11-21T03:37:48;4;2;
64138;PMS5003;50435;43.700;-79.318;2022-11-21T03:40:15;2;2;
64138;PMS5003;50435;43.700;-79.318;2022-11-21T03:42:43;6;4;
64138;PMS5003;50435;43.700;-79.318;2022-11-21T03:45:10;3;3;
64138;PMS5003;50435;43.700;-79.318;2022-11-21T03:47:38;3;3;
64138;PMS5003;50435;43.700;-79.318;2022-11-21T03:50:05;4;3;
64138;PMS5003;50435;43.700;-79.318;2022-11-21T03:52:33;4;3;
64138;PMS5003;50435;43.700;-79.318;2022-11-21T03:55:01;3;3;
64138;PMS5003;50435;43.700;-79.318;2022-11-21T03:57:30;2;2;
64138;PMS5003;50435;43.700;-79.318;2022-11-21T03:59:57;2;2;
64138;PMS5003;50435;43.700;-79.318;2022-11-21T04:02:25;3;3;
64138;PMS5003;50435;43.700;-79.318;2022-11-21T04:04:52;2;2;
64138;PMS5003;50435;43.700;-79.318;2022-11-21T04:07:20;6;4;
64138;PMS5003;50435;43.700;-79.318;2022-11-21T04:09:47;2;2;
64138;PMS5003;50435;43.700;-79.318;2022-11-21T04:12:15;6;6;
64138;PMS5003;50435;43.700;-79.318;2022-11-21T04:14:42;7;7;
64138;PMS5003;50435;43.700;-79.318;2022-11-21T04:17:10;6;6;
64138;PMS5003;50435;43.700;-79.318;2022-11-21T04:19:37;3;3;
64138;PMS5003;50435;43.700;-79.318;2022-11-21T04:22:04;4;4;
64138;PMS5003;50435;43.700;-79.318;2022-11-21T04:24:32;4;4;
64138;PMS5003;50435;43.700;-79.318;2022-11-21T04:26:59;6;6;
64138;PMS5003;50435;43.700;-79.318;2022-11-21T04:29:27;3;3;
64138;PMS5003;50435;43.700;-79.318;2022-11-21T04:31:54;8;4;
64138;PMS5003;50435;43.700;-79.318;2022-11-21T04:34:22;6;6;
64138;PMS5003;50435;43.700;-79.318;2022-11-21T04:36:49;8;8;
64138;PMS5003;50435;43.700;-79.318;2022-11-21T04:39:17;4;4;
64138;PMS5003;50435;43.700;-79.318;2022-11-21T04:41:44;8;7;
64138;PMS5003;50435;43.700;-79.318;2022-11-21T04:44:12;6;6;
64138;PMS5003;50435;43.700;-79.318;2022-11-21T04:46:39;10;7;
64138;PMS5003;50435;43.700;-79.318;2022-11-21T04:49:07;8;6;
64138;PMS5003;50435;43.700;-79.318;2022-11-21T04:51:34;6;6;
64138;PMS5003;50435;43.700;-79.318;2022-11-21T04:54:02;7;6;
64138;PMS5003;50435;43.700;-79.318;2022-11-21T04:56:29;6;6;
64138;PMS5003;50435;43.700;-79.318;2022-11-21T04:58:56;8;8;
64138;PMS5003;50435;43.700;-79.318;2022-11-21T05:01:24;8;8;
64138;PMS5003;50435;43.700;-79.318;2022-11-21T05:03:51;10;8;
64138;PMS5003;50435;43.700;-79.318;2022-11-21T05:06:19;8;8;
64138;PMS5003;50435;43.700;-79.318;2022-11-21T05:08:47;10;7;
64138;PMS5003;50435;43.700;-79.318;2022-11-21T05:11:14;8;8;
64138;PMS5003;50435;43.700;-79.318;2022-11-21T05:13:41;7;7;
64138;PMS5003;50435;43.700;-79.318;2022-11-21T05:16:08;8;7;
64138;PMS5003;50435;43.700;-79.318;2022-11-21T05:18:36;7;7;
64138;PMS5003;50435;43.700;-79.318;2022-11-21T05:21:03;8;6;
64138;PMS5003;50435;43.700;-79.318;2022-11-21T05:23:31;10;9;
64138;PMS5003;50435;43.700;-79.318;2022-11-21T05:25:58;8;8;
64138;PMS5003;50435;43.700;-79.318;2022-11-21T05:28:26;9;8;
64138;PMS5003;50435;43.700;-79.318;2022-11-21T05:30:53;8;7;
64138;PMS5003;50435;43.700;-79.318;2022-11-21T05:33:20;8;8;
64138;PMS5003;50435;43.700;-79.318;2022-11-21T05:35:48;10;10;
64138;PMS5003;50435;43.700;-79.318;2022-11-21T05:38:15;9;8;
64138;PMS5003;50435;43.700;-79.318;2022-11-21T05:40:43;9;8;
64138;PMS5003;50435;43.700;-79.318;2022-11-21T05:43:11;7;6;
64138;PMS5003;50435;43.700;-79.318;2022-11-21T05:45:38;10;8;
64138;PMS5003;50435;43.700;-79.318;2022-11-21T05:48:06;9;9;
64138;PMS5003;50435;43.700;-79.318;2022-11-21T05:50:34;9;9;
64138;PMS5003;50435;43.700;-79.318;2022-11-21T05:53:02;9;9;
64138;PMS5003;50435;43.700;-79.318;2022-11-21T05:55:30;10;10;
64138;PMS5003;50435;43.700;-79.318;2022-11-21T05:57:59;9;9;
64138;PMS5003;50435;43.700;-79.318;2022-11-21T06:00:27;9;9;
64138;PMS5003;50435;43.700;-79.318;2022-11-21T06:02:55;12;10;
64138;PMS5003;50435;43.700;-79.318;2022-11-21T06:05:22;10;8;
64138;PMS5003;50435;43.700;-79.318;2022-11-21T06:07:50;9;9;
64138;PMS5003;50435;43.700;-79.318;2022-11-21T06:10:18;10;8;
64138;PMS5003;50435;43.700;-79.318;2022-11-21T06:12:45;9;9;
64138;PMS5003;50435;43.700;-79.318;2022-11-21T06:15:13;9;9;
64138;PMS5003;50435;43.700;-79.318;2022-11-21T06:17:40;13;12;
64138;PMS5003;50435;43.700;-79.318;2022-11-21T06:20:08;14;13;
64138;PMS5003;50435;43.700;-79.318;2022-11-21T06:22:36;14;12;
64138;PMS5003;50435;43.700;-79.318;2022-11-21T06:25:04;10;10;
64138;PMS5003;50435;43.700;-79.318;2022-11-21T06:27:32;8;8;
64138;PMS5003;50435;43.700;-79.318;2022-11-21T06:30:00;13;12;
64138;PMS5003;50435;43.700;-79.318;2022-11-21T06:32:27;10;10;
64138;PMS5003;50435;43.700;-79.318;2022-11-21T06:34:54;10;10;
64138;PMS5003;50435;43.700;-79.318;2022-11-21T06:37:22;8;8;
64138;PMS5003;50435;43.700;-79.318;2022-11-21T06:39:49;15;13;
64138;PMS5003;50435;43.700;-79.318;2022-11-21T06:42:17;12;9;
64138;PMS5003;50435;43.700;-79.318;2022-11-21T06:44:44;14;14;
64138;PMS5003;50435;43.700;-79.318;2022-11-21T06:47:12;12;12;
64138;PMS5003;50435;43.700;-79.318;2022-11-21T06:49:39;12;12;
64138;PMS5003;50435;43.700;-79.318;2022-11-21T06:52:07;12;10;
64138;PMS5003;50435;43.700;-79.318;2022-11-21T06:54:34;15;15;
64138;PMS5003;50435;43.700;-79.318;2022-11-21T06:57:02;12;12;
64138;PMS5003;50435;43.700;-79.318;2022-11-21T06:59:30;14;14;
64138;PMS5003;50435;43.700;-79.318;2022-11-21T07:01:57;13;11;
64138;PMS5003;50435;43.700;-79.318;2022-11-21T07:04:25;15;14;
64138;PMS5003;50435;43.700;-79.318;2022-11-21T07:06:53;14;14;
64138;PMS5003;50435;43.700;-79.318;2022-11-21T07:09:20;11;11;
64138;PMS5003;50435;43.700;-79.318;2022-11-21T07:11:48;11;11;
64138;PMS5003;50435;43.700;-79.318;2022-11-21T07:14:16;14;13;
64138;PMS5003;50435;43.700;-79.318;2022-11-21T07:16:44;14;14;
64138;PMS5003;50435;43.700;-79.318;2022-11-21T07:19:11;12;12;
64138;PMS5003;50435;43.700;-79.318;2022-11-21T07:21:39;14;14;
64138;PMS5003;50435;43.700;-79.318;2022-11-21T07:24:06;13;12;
64138;PMS5003;50435;43.700;-79.318;2022-11-21T07:26:33;18;17;
64138;PMS5003;50435;43.700;-79.318;2022-11-21T07:29:01;17;15;
64138;PMS5003;50435;43.700;-79.318;2022-11-21T07:31:28;13;12;
64138;PMS5003;50435;43.700;-79.318;2022-11-21T07:33:55;15;14;
64138;PMS5003;50435;43.700;-79.318;2022-11-21T07:36:23;14;14;
64138;PMS5003;50435;43.700;-79.318;2022-11-21T07:38:50;13;13;
64138;PMS5003;50435;43.700;-79.318;2022-11-21T07:41:18;14;13;
64138;PMS5003;50435;43.700;-79.318;2022-11-21T07:43:46;12;12;
64138;PMS5003;50435;43.700;-79.318;2022-11-21T07:46:13;15;15;
64138;PMS5003;50435;43.700;-79.318;2022-11-21T07:48:41;23;14;
64138;PMS5003;50435;43.700;-79.318;2022-11-21T07:51:08;19;12;
64138;PMS5003;50435;43.700;-79.318;2022-11-21T07:53:36;14;14;
64138;PMS5003;50435;43.700;-79.318;2022-11-21T07:56:03;13;13;
64138;PMS5003;50435;43.700;-79.318;2022-11-21T07:58:31;14;14;
64138;PMS5003;50435;43.700;-79.318;2022-11-21T08:01:01;18;15;
64138;PMS5003;50435;43.700;-79.318;2022-11-21T08:03:29;16;13;
64138;PMS5003;50435;43.700;-79.318;2022-11-21T08:05:59;15;14;
64138;PMS5003;50435;43.700;-79.318;2022-11-21T08:08:27;15;14;
64138;PMS5003;50435;43.700;-79.318;2022-11-21T08:10:54;13;13;
64138;PMS5003;50435;43.700;-79.318;2022-11-21T08:13:23;18;13;
64138;PMS5003;50435;43.700;-79.318;2022-11-21T08:15:50;21;20;
64138;PMS5003;50435;43.700;-79.318;2022-11-21T08:18:18;17;15;
64138;PMS5003;50435;43.700;-79.318;2022-11-21T08:20:45;13;13;
64138;PMS5003;50435;43.700;-79.318;2022-11-21T08:23:12;15;15;
64138;PMS5003;50435;43.700;-79.318;2022-11-21T08:25:40;15;15;
64138;PMS5003;50435;43.700;-79.318;2022-11-21T08:28:09;14;14;
64138;PMS5003;50435;43.700;-79.318;2022-11-21T08:30:38;17;15;
64138;PMS5003;50435;43.700;-79.318;2022-11-21T08:33:06;14;13;
64138;PMS5003;50435;43.700;-79.318;2022-11-21T08:35:34;17;15;
64138;PMS5003;50435;43.700;-79.318;2022-11-21T08:38:03;15;15;
64138;PMS5003;50435;43.700;-79.318;2022-11-21T08:40:31;15;14;
64138;PMS5003;50435;43.700;-79.318;2022-11-21T08:43:00;18;18;
64138;PMS5003;50435;43.700;-79.318;2022-11-21T08:45:30;17;14;
64138;PMS5003;50435;43.700;-79.318;2022-11-21T08:47:58;13;13;
64138;PMS5003;50435;43.700;-79.318;2022-11-21T08:50:25;18;12;
64138;PMS5003;50435;43.700;-79.318;2022-11-21T08:52:54;15;13;
64138;PMS5003;50435;43.700;-79.318;2022-11-21T08:55:25;15;15;
64138;PMS5003;50435;43.700;-79.318;2022-11-21T08:57:53;14;14;
64138;PMS5003;50435;43.700;-79.318;2022-11-21T09:00:20;12;11;
64138;PMS5003;50435;43.700;-79.318;2022-11-21T09:02:48;12;12;
64138;PMS5003;50435;43.700;-79.318;2022-11-21T09:05:16;10;10;
64138;PMS5003;50435;43.700;-79.318;2022-11-21T09:07:43;15;14;
64138;PMS5003;50435;43.700;-79.318;2022-11-21T09:10:10;12;12;
64138;PMS5003;50435;43.700;-79.318;2022-11-21T09:12:38;12;12;
64138;PMS5003;50435;43.700;-79.318;2022-11-21T09:15:07;12;12;
64138;PMS5003;50435;43.700;-79.318;2022-11-21T09:17:36;11;11;
64138;PMS5003;50435;43.700;-79.318;2022-11-21T09:20:04;12;9;
64138;PMS5003;50435;43.700;-79.318;2022-11-21T09:22:33;10;10;
64138;PMS5003;50435;43.700;-79.318;2022-11-21T09:25:00;9;8;
64138;PMS5003;50435;43.700;-79.318;2022-11-21T09:27:28;12;9;
64138;PMS5003;50435;43.700;-79.318;2022-11-21T09:29:56;13;9;
64138;PMS5003;50435;43.700;-79.318;2022-11-21T09:32:23;10;10;
64138;PMS5003;50435;43.700;-79.318;2022-11-21T09:34:51;9;8;
64138;PMS5003;50435;43.700;-79.318;2022-11-21T09:37:18;7;7;
64138;PMS5003;50435;43.700;-79.318;2022-11-21T09:39:46;7;7;
64138;PMS5003;50435;43.700;-79.318;2022-11-21T09:42:22;7;7;
64138;PMS5003;50435;43.700;-79.318;2022-11-21T09:45:02;9;7;
64138;PMS5003;50435;43.700;-79.318;2022-11-21T09:47:34;7;7;
64138;PMS5003;50435;43.700;-79.318;2022-11-21T09:50:15;7;6;
64138;PMS5003;50435;43.700;-79.318;2022-11-21T09:52:50;6;6;
64138;PMS5003;50435;43.700;-79.318;2022-11-21T09:55:25;6;6;
64138;PMS5003;50435;43.700;-79.318;2022-11-21T09:57:57;7;7;
64138;PMS5003;50435;43.700;-79.318;2022-11-21T10:00:28;4;4;
64138;PMS5003;50435;43.700;-79.318;2022-11-21T10:02:57;6;6;
64138;PMS5003;50435;43.700;-79.318;2022-11-21T10:05:29;4;4;
64138;PMS5003;50435;43.700;-79.318;2022-11-21T10:08:04;6;6;
64138;PMS5003;50435;43.700;-79.318;2022-11-21T10:10:45;6;3;
64138;PMS5003;50435;43.700;-79.318;2022-11-21T10:13:22;7;6;
64138;PMS5003;50435;43.700;-79.318;2022-11-21T10:16:01;9;7;
64138;PMS5003;50435;43.700;-79.318;2022-11-21T10:18:42;6;4;
64138;PMS5003;50435;43.700;-79.318;2022-11-21T10:21:26;6;6;
64138;PMS5003;50435;43.700;-79.318;2022-11-21T10:24:11;7;6;
64138;PMS5003;50435;43.700;-79.318;2022-11-21T10:26:50;7;4;
64138;PMS5003;50435;43.700;-79.318;2022-11-21T10:29:20;6;4;
64138;PMS5003;50435;43.700;-79.318;2022-11-21T10:31:53;2;2;
64138;PMS5003;50435;43.700;-79.318;2022-11-21T10:34:24;4;4;
64138;PMS5003;50435;43.700;-79.318;2022-11-21T10:36:56;6;6;
64138;PMS5003;50435;43.700;-79.318;2022-11-21T10:39:33;6;6;
64138;PMS5003;50435;43.700;-79.318;2022-11-21T10:42:08;4;4;
64138;PMS5003;50435;43.700;-79.318;2022-11-21T10:44:53;4;4;
64138;PMS5003;50435;43.700;-79.318;2022-11-21T10:47:22;4;3;
64138;PMS5003;50435;43.700;-79.318;2022-11-21T10:49:50;6;4;
64138;PMS5003;50435;43.700;-79.318;2022-11-21T10:52:19;3;3;
64138;PMS5003;50435;43.700;-79.318;2022-11-21T10:55:02;4;4;
64138;PMS5003;50435;43.700;-79.318;2022-11-21T10:57:36;6;3;
64138;PMS5003;50435;43.700;-79.318;2022-11-21T11:00:16;6;6;
64138;PMS5003;50435;43.700;-79.318;2022-11-21T11:03:19;7;7;
64138;PMS5003;50435;43.700;-79.318;2022-11-21T11:05:53;2;2;
64138;PMS5003;50435;43.700;-79.318;2022-11-21T11:08:21;3;3;
64138;PMS5003;50435;43.700;-79.318;2022-11-21T11:10:59;8;8;
64138;PMS5003;50435;43.700;-79.318;2022-11-21T11:13:29;4;4;
64138;PMS5003;50435;43.700;-79.318;2022-11-21T11:16:00;6;6;
64138;PMS5003;50435;43.700;-79.318;2022-11-21T11:18:32;3;3;
64138;PMS5003;50435;43.700;-79.318;2022-11-21T11:21:11;2;2;
64138;PMS5003;50435;43.700;-79.318;2022-11-21T11:23:42;3;3;
64138;PMS5003;50435;43.700;-79.318;2022-11-21T11:26:17;3;3;
64138;PMS5003;50435;43.700;-79.318;2022-11-21T11:28:49;2;2;
64138;PMS5003;50435;43.700;-79.318;2022-11-21T11:31:16;3;3;
64138;PMS5003;50435;43.700;-79.318;2022-11-21T11:33:52;7;4;
64138;PMS5003;50435;43.700;-79.318;2022-11-21T11:36:25;4;4;
64138;PMS5003;50435;43.700;-79.318;2022-11-21T11:39:03;3;3;
64138;PMS5003;50435;43.700;-79.318;2022-11-21T11:41:44;3;1;
64138;PMS5003;50435;43.700;-79.318;2022-11-21T11:44:22;2;2;
64138;PMS5003;50435;43.700;-79.318;2022-11-21T11:46:58;4;2;
64138;PMS5003;50435;43.700;-79.318;2022-11-21T11:49:35;3;2;
64138;PMS5003;50435;43.700;-79.318;2022-11-21T11:52:08;2;2;
64138;PMS5003;50435;43.700;-79.318;2022-11-21T11:54:41;3;3;
64138;PMS5003;50435;43.700;-79.318;2022-11-21T11:57:15;5;3;
64138;PMS5003;50435;43.700;-79.318;2022-11-21T11:59:44;5;3;
64138;PMS5003;50435;43.700;-79.318;2022-11-21T12:02:15;4;3;
64138;PMS5003;50435;43.700;-79.318;2022-11-21T12:04:49;3;3;
64138;PMS5003;50435;43.700;-79.318;2022-11-21T12:07:20;3;3;
64138;PMS5003;50435;43.700;-79.318;2022-11-21T12:09:55;10;5;
64138;PMS5003;50435;43.700;-79.318;2022-11-21T12:12:31;4;3;
64138;PMS5003;50435;43.700;-79.318;2022-11-21T12:15:09;4;4;
64138;PMS5003;50435;43.700;-79.318;2022-11-21T12:17:42;3;3;
64138;PMS5003;50435;43.700;-79.318;2022-11-21T12:20:14;4;4;
64138;PMS5003;50435;43.700;-79.318;2022-11-21T12:22:48;7;7;
64138;PMS5003;50435;43.700;-79.318;2022-11-21T12:25:18;5;5;
64138;PMS5003;50435;43.700;-79.318;2022-11-21T12:27:51;5;5;
64138;PMS5003;50435;43.700;-79.318;2022-11-21T12:30:26;8;7;
64138;PMS5003;50435;43.700;-79.318;2022-11-21T12:33:11;7;5;
64138;PMS5003;50435;43.700;-79.318;2022-11-21T12:35:52;9;7;
64138;PMS5003;50435;43.700;-79.318;2022-11-21T12:38:38;7;7;
64138;PMS5003;50435;43.700;-79.318;2022-11-21T12:41:20;5;5;
64138;PMS5003;50435;43.700;-79.318;2022-11-21T12:43:56;9;8;
64138;PMS5003;50435;43.700;-79.318;2022-11-21T12:46:34;9;9;
64138;PMS5003;50435;43.700;-79.318;2022-11-21T12:49:14;9;9;
64138;PMS5003;50435;43.700;-79.318;2022-11-21T12:51:59;9;7;
64138;PMS5003;50435;43.700;-79.318;2022-11-21T12:55:40;8;8;
64138;PMS5003;50435;43.700;-79.318;2022-11-21T12:58:11;9;8;
64138;PMS5003;50435;43.700;-79.318;2022-11-21T13:00:50;7;7;
64138;PMS5003;50435;43.700;-79.318;2022-11-21T13:03:28;5;5;
64138;PMS5003;50435;43.700;-79.318;2022-11-21T13:06:05;7;7;
64138;PMS5003;50435;43.700;-79.318;2022-11-21T13:08:41;5;5;
64138;PMS5003;50435;43.700;-79.318;2022-11-21T13:11:15;7;5;
64138;PMS5003;50435;43.700;-79.318;2022-11-21T13:13:48;5;5;
64138;PMS5003;50435;43.700;-79.318;2022-11-21T13:16:21;8;8;
64138;PMS5003;50435;43.700;-79.318;2022-11-21T13:18:53;4;4;
64138;PMS5003;50435;43.700;-79.318;2022-11-21T13:21:52;7;7;
64138;PMS5003;50435;43.700;-79.318;2022-11-21T13:27:05;7;7;
64138;PMS5003;50435;43.700;-79.318;2022-11-21T13:29:33;8;8;
64138;PMS5003;50435;43.700;-79.318;2022-11-21T13:32:19;7;7;
64138;PMS5003;50435;43.700;-79.318;2022-11-21T13:35:09;9;7;
64138;PMS5003;50435;43.700;-79.318;2022-11-21T13:38:21;4;4;
64138;PMS5003;50435;43.700;-79.318;2022-11-21T13:40:49;5;5;
64138;PMS5003;50435;43.700;-79.318;2022-11-21T13:43:22;7;7;
64138;PMS5003;50435;43.700;-79.318;2022-11-21T13:45:51;5;5;
64138;PMS5003;50435;43.700;-79.318;2022-11-21T13:48:21;8;8;
64138;PMS5003;50435;43.700;-79.318;2022-11-21T13:51:51;7;7;
64138;PMS5003;50435;43.700;-79.318;2022-11-21T13:56:05;5;5;
64138;PMS5003;50435;43.700;-79.318;2022-11-21T13:58:44;4;4;
64138;PMS5003;50435;43.700;-79.318;2022-11-21T14:01:34;4;4;
64138;PMS5003;50435;43.700;-79.318;2022-11-21T14:04:23;7;5;
64138;PMS5003;50435;43.700;-79.318;2022-11-21T14:07:34;4;4;
64138;PMS5003;50435;43.700;-79.318;2022-11-21T14:10:05;8;5;
64138;PMS5003;50435;43.700;-79.318;2022-11-21T14:12:46;5;5;
64138;PMS5003;50435;43.700;-79.318;2022-11-21T14:15:20;4;4;
64138;PMS5003;50435;43.700;-79.318;2022-11-21T14:17:54;5;5;
64138;PMS5003;50435;43.700;-79.318;2022-11-21T14:20:25;7;7;
64138;PMS5003;50435;43.700;-79.318;2022-11-21T14:22:56;7;5;
64138;PMS5003;50435;43.700;-79.318;2022-11-21T14:25:31;8;4;
64138;PMS5003;50435;43.700;-79.318;2022-11-21T14:28:02;4;4;
64138;PMS5003;50435;43.700;-79.318;2022-11-21T14:30:34;5;5;
64138;PMS5003;50435;43.700;-79.318;2022-11-21T14:33:20;3;3;
64138;PMS5003;50435;43.700;-79.318;2022-11-21T14:35:49;5;5;
64138;PMS5003;50435;43.700;-79.318;2022-11-21T14:38:19;4;4;
64138;PMS5003;50435;43.700;-79.318;2022-11-21T14:40:48;10;5;
64138;PMS5003;50435;43.700;-79.318;2022-11-21T14:43:29;5;5;
64138;PMS5003;50435;43.700;-79.318;2022-11-21T14:45:58;4;4;
64138;PMS5003;50435;43.700;-79.318;2022-11-21T14:48:26;6;6;
64138;PMS5003;50435;43.700;-79.318;2022-11-21T14:50:55;8;6;
64138;PMS5003;50435;43.700;-79.318;2022-11-21T14:53:24;10;9;
64138;PMS5003;50435;43.700;-79.318;2022-11-21T14:55:51;5;4;
64138;PMS5003;50435;43.700;-79.318;2022-11-21T14:58:19;5;5;
64138;PMS5003;50435;43.700;-79.318;2022-11-21T15:01:02;5;5;
64138;PMS5003;50435;43.700;-79.318;2022-11-21T15:03:31;4;4;
64138;PMS5003;50435;43.700;-79.318;2022-11-21T15:05:58;4;4;
64138;PMS5003;50435;43.700;-79.318;2022-11-21T15:08:27;5;3;
64138;PMS5003;50435;43.700;-79.318;2022-11-21T15:10:55;6;4;
64138;PMS5003;50435;43.700;-79.318;2022-11-21T15:13:27;4;3;
64138;PMS5003;50435;43.700;-79.318;2022-11-21T15:15:59;5;5;
64138;PMS5003;50435;43.700;-79.318;2022-11-21T15:18:28;4;4;
64138;PMS5003;50435;43.700;-79.318;2022-11-21T15:20:57;6;6;
64138;PMS5003;50435;43.700;-79.318;2022-11-21T15:23:27;3;3;
64138;PMS5003;50435;43.700;-79.318;2022-11-21T15:25:55;4;4;
64138;PMS5003;50435;43.700;-79.318;2022-11-21T15:28:23;6;6;
64138;PMS5003;50435;43.700;-79.318;2022-11-21T15:31:23;4;4;
64138;PMS5003;50435;43.700;-79.318;2022-11-21T15:33:52;8;5;
64138;PMS5003;50435;43.700;-79.318;2022-11-21T15:36:23;4;4;
64138;PMS5003;50435;43.700;-79.318;2022-11-21T15:38:51;5;5;
64138;PMS5003;50435;43.700;-79.318;2022-11-21T15:41:23;5;5;
64138;PMS5003;50435;43.700;-79.318;2022-11-21T15:43:53;5;5;
64138;PMS5003;50435;43.700;-79.318;2022-11-21T15:46:22;4;4;
64138;PMS5003;50435;43.700;-79.318;2022-11-21T15:48:51;6;4;
64138;PMS5003;50435;43.700;-79.318;2022-11-21T15:51:20;9;6;
64138;PMS5003;50435;43.700;-79.318;2022-11-21T15:53:50;8;8;
64138;PMS5003;50435;43.700;-79.318;2022-11-21T15:56:18;10;8;
64138;PMS5003;50435;43.700;-79.318;2022-11-21T15:58:46;7;7;
64138;PMS5003;50435;43.700;-79.318;2022-11-21T16:01:15;4;4;
64138;PMS5003;50435;43.700;-79.318;2022-11-21T16:03:44;7;7;
64138;PMS5003;50435;43.700;-79.318;2022-11-21T16:06:13;9;9;
64138;PMS5003;50435;43.700;-79.318;2022-11-21T16:08:41;6;6;
64138;PMS5003;50435;43.700;-79.318;2022-11-21T16:11:11;11;11;
64138;PMS5003;50435;43.700;-79.318;2022-11-21T16:13:47;6;5;
64138;PMS5003;50435;43.700;-79.318;2022-11-21T16:16:15;4;4;
64138;PMS5003;50435;43.700;-79.318;2022-11-21T16:18:43;7;6;
64138;PMS5003;50435;43.700;-79.318;2022-11-21T16:21:12;6;6;
64138;PMS5003;50435;43.700;-79.318;2022-11-21T16:23:40;9;7;
64138;PMS5003;50435;43.700;-79.318;2022-11-21T16:26:08;4;4;
64138;PMS5003;50435;43.700;-79.318;2022-11-21T16:28:37;6;4;
64138;PMS5003;50435;43.700;-79.318;2022-11-21T16:31:05;7;6;
64138;PMS5003;50435;43.700;-79.318;2022-11-21T16:33:33;6;6;
64138;PMS5003;50435;43.700;-79.318;2022-11-21T16:36:00;7;7;
64138;PMS5003;50435;43.700;-79.318;2022-11-21T16:38:28;7;6;
64138;PMS5003;50435;43.700;-79.318;2022-11-21T16:40:56;4;4;